sensor_id;sensor_type;location;lat;lon;timestamp;temperature;humidity
3418;DHT22;68007;51.312;12.372;2023-07-28T00:02:05;19.90;97.00
3418;DHT22;68007;51.312;12.372;2023-07-28T00:04:34;19.90;96.50
3418;DHT22;68007;51.312;12.372;2023-07-28T00:07:02;19.90;96.70
3418;DHT22;68007;51.312;12.372;2023-07-28T00:09:30;20.00;96.60
3418;DHT22;68007;51.312;12.372;2023-07-28T00:11:58;19.90;97.00
3418;DHT22;68007;51.312;12.372;2023-07-28T00:14:26;20.00;96.70
3418;DHT22;68007;51.312;12.372;2023-07-28T00:16:56;20.00;96.90
3418;DHT22;68007;51.312;12.372;2023-07-28T00:19:25;20.00;96.50
3418;DHT22;68007;51.312;12.372;2023-07-28T00:21:53;20.00;96.60
3418;DHT22;68007;51.312;12.372;2023-07-28T00:24:22;20.00;96.70
3418;DHT22;68007;51.312;12.372;2023-07-28T00:26:49;20.00;96.40
3418;DHT22;68007;51.312;12.372;2023-07-28T00:29:17;20.10;96.50
3418;DHT22;68007;51.312;12.372;2023-07-28T00:31:44;20.10;96.40
3418;DHT22;68007;51.312;12.372;2023-07-28T00:34:12;20.10;96.50
3418;DHT22;68007;51.312;12.372;2023-07-28T00:36:41;20.10;96.40
3418;DHT22;68007;51.312;12.372;2023-07-28T00:39:08;20.10;96.30
3418;DHT22;68007;51.312;12.372;2023-07-28T00:41:36;20.10;96.50
3418;DHT22;68007;51.312;12.372;2023-07-28T00:44:03;20.10;96.30
3418;DHT22;68007;51.312;12.372;2023-07-28T00:46:31;20.10;96.70
3418;DHT22;68007;51.312;12.372;2023-07-28T00:48:59;20.10;96.50
3418;DHT22;68007;51.312;12.372;2023-07-28T00:51:28;20.10;96.40
3418;DHT22;68007;51.312;12.372;2023-07-28T00:53:57;20.20;96.20
3418;DHT22;68007;51.312;12.372;2023-07-28T00:56:25;20.20;96.00
3418;DHT22;68007;51.312;12.372;2023-07-28T00:58:54;20.10;96.00
3418;DHT22;68007;51.312;12.372;2023-07-28T01:01:21;20.20;96.10
3418;DHT22;68007;51.312;12.372;2023-07-28T01:03:49;20.20;96.40
3418;DHT22;68007;51.312;12.372;2023-07-28T01:06:24;20.20;96.10
3418;DHT22;68007;51.312;12.372;2023-07-28T01:08:58;20.20;96.60
3418;DHT22;68007;51.312;12.372;2023-07-28T01:11:29;20.20;96.60
3418;DHT22;68007;51.312;12.372;2023-07-28T01:13:57;20.20;96.70
3418;DHT22;68007;51.312;12.372;2023-07-28T01:16:24;20.10;96.80
3418;DHT22;68007;51.312;12.372;2023-07-28T01:18:52;20.10;96.70
3418;DHT22;68007;51.312;12.372;2023-07-28T01:21:22;20.10;96.70
3418;DHT22;68007;51.312;12.372;2023-07-28T01:24:00;20.10;96.70
3418;DHT22;68007;51.312;12.372;2023-07-28T01:26:33;20.10;96.60
3418;DHT22;68007;51.312;12.372;2023-07-28T01:29:02;20.10;97.20
3418;DHT22;68007;51.312;12.372;2023-07-28T01:31:30;20.10;96.70
3418;DHT22;68007;51.312;12.372;2023-07-28T01:33:58;20.10;96.50
3418;DHT22;68007;51.312;12.372;2023-07-28T01:36:25;20.10;96.40
3418;DHT22;68007;51.312;12.372;2023-07-28T01:38:53;20.10;96.50
3418;DHT22;68007;51.312;12.372;2023-07-28T01:41:21;20.10;96.70
3418;DHT22;68007;51.312;12.372;2023-07-28T01:43:50;20.10;96.60
3418;DHT22;68007;51.312;12.372;2023-07-28T01:46:18;20.20;96.60
3418;DHT22;68007;51.312;12.372;2023-07-28T01:48:45;20.10;97.00
3418;DHT22;68007;51.312;12.372;2023-07-28T01:51:13;20.10;96.50
3418;DHT22;68007;51.312;12.372;2023-07-28T01:53:40;20.10;96.60
3418;DHT22;68007;51.312;12.372;2023-07-28T01:56:08;20.20;96.70
3418;DHT22;68007;51.312;12.372;2023-07-28T01:58:35;20.10;96.50
3418;DHT22;68007;51.312;12.372;2023-07-28T02:01:04;20.20;96.90
3418;DHT22;68007;51.312;12.372;2023-07-28T02:03:31;20.20;96.50
3418;DHT22;68007;51.312;12.372;2023-07-28T02:06:00;20.20;96.40
3418;DHT22;68007;51.312;12.372;2023-07-28T02:08:27;20.20;96.80
3418;DHT22;68007;51.312;12.372;2023-07-28T02:10:54;20.10;96.90
3418;DHT22;68007;51.312;12.372;2023-07-28T02:13:22;20.10;96.90
3418;DHT22;68007;51.312;12.372;2023-07-28T02:15:49;20.00;97.20
3418;DHT22;68007;51.312;12.372;2023-07-28T02:18:18;19.90;97.30
3418;DHT22;68007;51.312;12.372;2023-07-28T02:20:48;19.90;97.20
3418;DHT22;68007;51.312;12.372;2023-07-28T02:23:16;19.90;97.30
3418;DHT22;68007;51.312;12.372;2023-07-28T02:25:43;19.90;97.30
3418;DHT22;68007;51.312;12.372;2023-07-28T02:28:10;19.90;97.30
3418;DHT22;68007;51.312;12.372;2023-07-28T02:30:38;19.90;97.40
3418;DHT22;68007;51.312;12.372;2023-07-28T02:33:06;19.90;97.50
3418;DHT22;68007;51.312;12.372;2023-07-28T02:35:34;19.90;97.20
3418;DHT22;68007;51.312;12.372;2023-07-28T02:38:02;19.90;97.20
3418;DHT22;68007;51.312;12.372;2023-07-28T02:40:30;19.90;97.40
3418;DHT22;68007;51.312;12.372;2023-07-28T02:42:59;19.90;97.20
3418;DHT22;68007;51.312;12.372;2023-07-28T02:45:27;19.90;97.40
3418;DHT22;68007;51.312;12.372;2023-07-28T02:47:54;19.90;97.30
3418;DHT22;68007;51.312;12.372;2023-07-28T02:50:21;19.90;97.70
3418;DHT22;68007;51.312;12.372;2023-07-28T02:52:50;19.90;97.40
3418;DHT22;68007;51.312;12.372;2023-07-28T02:55:18;19.90;97.40
3418;DHT22;68007;51.312;12.372;2023-07-28T02:57:45;19.90;97.30
3418;DHT22;68007;51.312;12.372;2023-07-28T03:00:13;19.90;97.00
3418;DHT22;68007;51.312;12.372;2023-07-28T03:02:41;19.90;97.00
3418;DHT22;68007;51.312;12.372;2023-07-28T03:05:08;20.00;96.80
3418;DHT22;68007;51.312;12.372;2023-07-28T03:07:36;20.00;97.00
3418;DHT22;68007;51.312;12.372;2023-07-28T03:10:05;20.00;97.10
3418;DHT22;68007;51.312;12.372;2023-07-28T03:12:33;20.00;97.10
3418;DHT22;68007;51.312;12.372;2023-07-28T03:15:01;20.00;96.80
3418;DHT22;68007;51.312;12.372;2023-07-28T03:17:29;20.00;97.10
3418;DHT22;68007;51.312;12.372;2023-07-28T03:19:57;19.90;97.20
3418;DHT22;68007;51.312;12.372;2023-07-28T03:22:24;19.90;97.00
3418;DHT22;68007;51.312;12.372;2023-07-28T03:24:52;19.90;97.10
3418;DHT22;68007;51.312;12.372;2023-07-28T03:27:20;19.90;97.20
3418;DHT22;68007;51.312;12.372;2023-07-28T03:29:48;19.90;97.20
3418;DHT22;68007;51.312;12.372;2023-07-28T03:32:15;19.90;97.30
3418;DHT22;68007;51.312;12.372;2023-07-28T03:34:43;19.90;97.30
3418;DHT22;68007;51.312;12.372;2023-07-28T03:37:10;19.80;97.40
3418;DHT22;68007;51.312;12.372;2023-07-28T03:39:38;19.80;97.40
3418;DHT22;68007;51.312;12.372;2023-07-28T03:42:06;19.80;97.50
3418;DHT22;68007;51.312;12.372;2023-07-28T03:44:35;19.80;97.70
3418;DHT22;68007;51.312;12.372;2023-07-28T03:47:04;19.80;97.40
3418;DHT22;68007;51.312;12.372;2023-07-28T03:49:32;19.80;97.40
3418;DHT22;68007;51.312;12.372;2023-07-28T03:51:59;19.80;97.30
3418;DHT22;68007;51.312;12.372;2023-07-28T03:54:26;19.80;97.50
3418;DHT22;68007;51.312;12.372;2023-07-28T03:56:54;19.80;97.60
3418;DHT22;68007;51.312;12.372;2023-07-28T03:59:22;19.70;97.70
3418;DHT22;68007;51.312;12.372;2023-07-28T04:01:50;19.70;97.90
3418;DHT22;68007;51.312;12.372;2023-07-28T04:04:18;19.60;98.00
3418;DHT22;68007;51.312;12.372;2023-07-28T04:06:48;19.60;98.10
3418;DHT22;68007;51.312;12.372;2023-07-28T04:09:17;19.60;98.10
3418;DHT22;68007;51.312;12.372;2023-07-28T04:11:44;19.50;98.10
3418;DHT22;68007;51.312;12.372;2023-07-28T04:14:12;19.50;98.20
3418;DHT22;68007;51.312;12.372;2023-07-28T04:16:40;19.50;98.20
3418;DHT22;68007;51.312;12.372;2023-07-28T04:19:09;19.50;98.20
3418;DHT22;68007;51.312;12.372;2023-07-28T04:21:37;19.50;98.10
3418;DHT22;68007;51.312;12.372;2023-07-28T04:24:06;19.60;98.20
3418;DHT22;68007;51.312;12.372;2023-07-28T04:26:34;19.60;98.10
3418;DHT22;68007;51.312;12.372;2023-07-28T04:29:01;19.60;98.00
3418;DHT22;68007;51.312;12.372;2023-07-28T04:31:29;19.60;98.00
3418;DHT22;68007;51.312;12.372;2023-07-28T04:33:56;19.60;98.00
3418;DHT22;68007;51.312;12.372;2023-07-28T04:36:25;19.60;98.10
3418;DHT22;68007;51.312;12.372;2023-07-28T04:38:52;19.60;98.10
3418;DHT22;68007;51.312;12.372;2023-07-28T04:41:20;19.60;98.10
3418;DHT22;68007;51.312;12.372;2023-07-28T04:43:48;19.60;98.10
3418;DHT22;68007;51.312;12.372;2023-07-28T04:46:15;19.60;98.10
3418;DHT22;68007;51.312;12.372;2023-07-28T04:48:43;19.60;98.10
3418;DHT22;68007;51.312;12.372;2023-07-28T04:51:10;19.60;98.10
3418;DHT22;68007;51.312;12.372;2023-07-28T04:53:39;19.60;98.30
3418;DHT22;68007;51.312;12.372;2023-07-28T04:56:06;19.50;98.30
3418;DHT22;68007;51.312;12.372;2023-07-28T04:58:34;19.40;98.60
3418;DHT22;68007;51.312;12.372;2023-07-28T05:01:01;19.40;98.60
3418;DHT22;68007;51.312;12.372;2023-07-28T05:03:29;19.40;98.50
3418;DHT22;68007;51.312;12.372;2023-07-28T05:05:57;19.40;98.70
3418;DHT22;68007;51.312;12.372;2023-07-28T05:08:24;19.30;98.80
3418;DHT22;68007;51.312;12.372;2023-07-28T05:10:53;19.30;98.90
3418;DHT22;68007;51.312;12.372;2023-07-28T05:13:21;19.20;99.10
3418;DHT22;68007;51.312;12.372;2023-07-28T05:15:48;19.20;99.10
3418;DHT22;68007;51.312;12.372;2023-07-28T05:18:16;19.20;99.00
3418;DHT22;68007;51.312;12.372;2023-07-28T05:20:43;19.20;99.20
3418;DHT22;68007;51.312;12.372;2023-07-28T05:23:11;19.10;99.30
3418;DHT22;68007;51.312;12.372;2023-07-28T05:25:38;19.10;99.40
3418;DHT22;68007;51.312;12.372;2023-07-28T05:28:07;19.00;99.50
3418;DHT22;68007;51.312;12.372;2023-07-28T05:30:35;19.00;99.60
3418;DHT22;68007;51.312;12.372;2023-07-28T05:33:02;19.00;99.70
3418;DHT22;68007;51.312;12.372;2023-07-28T05:35:30;19.00;99.70
3418;DHT22;68007;51.312;12.372;2023-07-28T05:37:58;19.00;99.70
3418;DHT22;68007;51.312;12.372;2023-07-28T05:40:25;19.00;99.60
3418;DHT22;68007;51.312;12.372;2023-07-28T05:42:53;19.10;99.50
3418;DHT22;68007;51.312;12.372;2023-07-28T05:45:22;19.10;99.60
3418;DHT22;68007;51.312;12.372;2023-07-28T05:47:49;19.10;99.40
3418;DHT22;68007;51.312;12.372;2023-07-28T05:50:17;19.20;99.40
3418;DHT22;68007;51.312;12.372;2023-07-28T05:52:44;19.20;99.40
3418;DHT22;68007;51.312;12.372;2023-07-28T05:55:13;19.20;99.50
3418;DHT22;68007;51.312;12.372;2023-07-28T05:57:40;19.20;99.50
3418;DHT22;68007;51.312;12.372;2023-07-28T06:00:09;19.10;99.60
3418;DHT22;68007;51.312;12.372;2023-07-28T06:02:39;19.10;99.70
3418;DHT22;68007;51.312;12.372;2023-07-28T06:05:08;19.10;99.80
3418;DHT22;68007;51.312;12.372;2023-07-28T06:07:35;19.10;99.80
3418;DHT22;68007;51.312;12.372;2023-07-28T06:10:03;19.00;99.90
3418;DHT22;68007;51.312;12.372;2023-07-28T06:12:31;19.00;99.90
3418;DHT22;68007;51.312;12.372;2023-07-28T06:14:58;19.10;99.90
3418;DHT22;68007;51.312;12.372;2023-07-28T06:17:26;19.10;99.80
3418;DHT22;68007;51.312;12.372;2023-07-28T06:19:56;19.20;99.70
3418;DHT22;68007;51.312;12.372;2023-07-28T06:22:23;19.20;99.70
3418;DHT22;68007;51.312;12.372;2023-07-28T06:24:51;19.20;99.70
3418;DHT22;68007;51.312;12.372;2023-07-28T06:27:18;19.20;99.80
3418;DHT22;68007;51.312;12.372;2023-07-28T06:29:46;19.20;99.80
3418;DHT22;68007;51.312;12.372;2023-07-28T06:32:13;19.20;99.80
3418;DHT22;68007;51.312;12.372;2023-07-28T06:34:41;19.20;99.80
3418;DHT22;68007;51.312;12.372;2023-07-28T06:37:10;19.30;99.70
3418;DHT22;68007;51.312;12.372;2023-07-28T06:39:38;19.30;99.70
3418;DHT22;68007;51.312;12.372;2023-07-28T06:42:06;19.40;99.40
3418;DHT22;68007;51.312;12.372;2023-07-28T06:44:33;19.40;99.30
3418;DHT22;68007;51.312;12.372;2023-07-28T06:47:01;19.50;99.40
3418;DHT22;68007;51.312;12.372;2023-07-28T06:49:29;19.50;99.40
3418;DHT22;68007;51.312;12.372;2023-07-28T06:51:56;19.50;99.40
3418;DHT22;68007;51.312;12.372;2023-07-28T06:54:25;19.50;99.40
3418;DHT22;68007;51.312;12.372;2023-07-28T06:56:53;19.40;99.50
3418;DHT22;68007;51.312;12.372;2023-07-28T06:59:20;19.40;99.60
3418;DHT22;68007;51.312;12.372;2023-07-28T07:01:47;19.40;99.70
3418;DHT22;68007;51.312;12.372;2023-07-28T07:04:16;19.40;99.80
3418;DHT22;68007;51.312;12.372;2023-07-28T07:06:44;19.30;99.80
3418;DHT22;68007;51.312;12.372;2023-07-28T07:09:11;19.40;99.80
3418;DHT22;68007;51.312;12.372;2023-07-28T07:11:42;19.50;99.70
3418;DHT22;68007;51.312;12.372;2023-07-28T07:14:09;19.50;99.60
3418;DHT22;68007;51.312;12.372;2023-07-28T07:16:37;19.50;99.50
3418;DHT22;68007;51.312;12.372;2023-07-28T07:19:04;19.50;99.40
3418;DHT22;68007;51.312;12.372;2023-07-28T07:21:32;19.60;99.50
3418;DHT22;68007;51.312;12.372;2023-07-28T07:23:59;19.60;99.20
3418;DHT22;68007;51.312;12.372;2023-07-28T07:26:27;19.60;99.30
3418;DHT22;68007;51.312;12.372;2023-07-28T07:28:56;19.60;99.30
3418;DHT22;68007;51.312;12.372;2023-07-28T07:31:23;19.60;99.40
3418;DHT22;68007;51.312;12.372;2023-07-28T07:33:51;19.60;99.20
3418;DHT22;68007;51.312;12.372;2023-07-28T07:36:19;19.60;99.20
3418;DHT22;68007;51.312;12.372;2023-07-28T07:38:47;19.60;99.10
3418;DHT22;68007;51.312;12.372;2023-07-28T07:41:15;19.70;99.00
3418;DHT22;68007;51.312;12.372;2023-07-28T07:43:45;19.80;98.80
3418;DHT22;68007;51.312;12.372;2023-07-28T07:46:15;19.80;98.80
3418;DHT22;68007;51.312;12.372;2023-07-28T07:48:42;19.90;98.70
3418;DHT22;68007;51.312;12.372;2023-07-28T07:51:10;19.90;98.70
3418;DHT22;68007;51.312;12.372;2023-07-28T07:53:38;20.00;98.70
3418;DHT22;68007;51.312;12.372;2023-07-28T07:56:06;20.00;98.50
3418;DHT22;68007;51.312;12.372;2023-07-28T07:58:34;20.00;98.40
3418;DHT22;68007;51.312;12.372;2023-07-28T08:01:01;20.00;98.40
3418;DHT22;68007;51.312;12.372;2023-07-28T08:03:31;20.00;98.30
3418;DHT22;68007;51.312;12.372;2023-07-28T08:05:58;20.00;98.00
3418;DHT22;68007;51.312;12.372;2023-07-28T08:08:26;20.00;97.70
3418;DHT22;68007;51.312;12.372;2023-07-28T08:10:54;20.00;97.90
3418;DHT22;68007;51.312;12.372;2023-07-28T08:13:21;20.00;97.80
3418;DHT22;68007;51.312;12.372;2023-07-28T08:15:49;20.00;97.80
3418;DHT22;68007;51.312;12.372;2023-07-28T08:18:16;20.10;97.80
3418;DHT22;68007;51.312;12.372;2023-07-28T08:20:45;20.20;97.70
3418;DHT22;68007;51.312;12.372;2023-07-28T08:23:13;20.30;97.30
3418;DHT22;68007;51.312;12.372;2023-07-28T08:25:40;20.30;97.30
3418;DHT22;68007;51.312;12.372;2023-07-28T08:28:08;20.30;96.90
3418;DHT22;68007;51.312;12.372;2023-07-28T08:30:35;20.30;97.00
3418;DHT22;68007;51.312;12.372;2023-07-28T08:33:03;20.30;96.80
3418;DHT22;68007;51.312;12.372;2023-07-28T08:35:30;20.40;96.90
3418;DHT22;68007;51.312;12.372;2023-07-28T08:37:59;20.30;97.00
3418;DHT22;68007;51.312;12.372;2023-07-28T08:40:27;20.40;97.00
3418;DHT22;68007;51.312;12.372;2023-07-28T08:42:54;20.40;96.90
3418;DHT22;68007;51.312;12.372;2023-07-28T08:45:22;20.50;97.00
3418;DHT22;68007;51.312;12.372;2023-07-28T08:47:51;20.50;96.80
3418;DHT22;68007;51.312;12.372;2023-07-28T08:50:19;20.50;97.00
3418;DHT22;68007;51.312;12.372;2023-07-28T08:52:46;20.50;96.70
3418;DHT22;68007;51.312;12.372;2023-07-28T08:55:18;20.60;96.80
3418;DHT22;68007;51.312;12.372;2023-07-28T08:57:45;20.60;96.70
3418;DHT22;68007;51.312;12.372;2023-07-28T09:00:13;20.60;96.60
3418;DHT22;68007;51.312;12.372;2023-07-28T09:02:41;20.60;96.60
3418;DHT22;68007;51.312;12.372;2023-07-28T09:05:17;20.60;96.50
3418;DHT22;68007;51.312;12.372;2023-07-28T09:07:46;20.70;96.50
3418;DHT22;68007;51.312;12.372;2023-07-28T09:10:13;20.60;96.20
3418;DHT22;68007;51.312;12.372;2023-07-28T09:12:49;20.70;96.50
3418;DHT22;68007;51.312;12.372;2023-07-28T09:15:17;20.70;96.30
3418;DHT22;68007;51.312;12.372;2023-07-28T09:17:45;20.80;96.50
3418;DHT22;68007;51.312;12.372;2023-07-28T09:20:14;20.80;96.20
3418;DHT22;68007;51.312;12.372;2023-07-28T09:22:42;20.90;96.20
3418;DHT22;68007;51.312;12.372;2023-07-28T09:25:14;20.90;96.30
3418;DHT22;68007;51.312;12.372;2023-07-28T09:27:51;21.00;95.40
3418;DHT22;68007;51.312;12.372;2023-07-28T09:30:18;21.00;94.80
3418;DHT22;68007;51.312;12.372;2023-07-28T09:32:49;21.00;95.10
3418;DHT22;68007;51.312;12.372;2023-07-28T09:35:17;21.00;95.00
3418;DHT22;68007;51.312;12.372;2023-07-28T09:37:47;21.10;95.10
3418;DHT22;68007;51.312;12.372;2023-07-28T09:40:20;21.20;95.10
3418;DHT22;68007;51.312;12.372;2023-07-28T09:42:49;21.20;95.10
3418;DHT22;68007;51.312;12.372;2023-07-28T09:45:18;21.30;95.20
3418;DHT22;68007;51.312;12.372;2023-07-28T09:47:47;21.30;95.00
3418;DHT22;68007;51.312;12.372;2023-07-28T09:50:16;21.30;94.70
3418;DHT22;68007;51.312;12.372;2023-07-28T09:52:46;21.40;94.70
3418;DHT22;68007;51.312;12.372;2023-07-28T09:55:14;21.40;94.70
3418;DHT22;68007;51.312;12.372;2023-07-28T09:57:45;21.40;94.80
3418;DHT22;68007;51.312;12.372;2023-07-28T10:00:14;21.50;94.80
3418;DHT22;68007;51.312;12.372;2023-07-28T10:02:44;21.50;94.80
3418;DHT22;68007;51.312;12.372;2023-07-28T10:05:12;21.60;94.60
3418;DHT22;68007;51.312;12.372;2023-07-28T10:07:43;21.60;94.40
3418;DHT22;68007;51.312;12.372;2023-07-28T10:10:12;21.60;94.30
3418;DHT22;68007;51.312;12.372;2023-07-28T10:12:41;21.70;94.10
3418;DHT22;68007;51.312;12.372;2023-07-28T10:15:13;21.70;94.00
3418;DHT22;68007;51.312;12.372;2023-07-28T10:17:49;21.70;93.90
3418;DHT22;68007;51.312;12.372;2023-07-28T10:20:29;21.80;93.60
3418;DHT22;68007;51.312;12.372;2023-07-28T10:23:04;21.80;93.90
3418;DHT22;68007;51.312;12.372;2023-07-28T10:25:33;21.80;93.40
3418;DHT22;68007;51.312;12.372;2023-07-28T10:28:01;21.90;93.70
3418;DHT22;68007;51.312;12.372;2023-07-28T10:30:35;21.90;93.50
3418;DHT22;68007;51.312;12.372;2023-07-28T10:33:05;22.00;93.50
3418;DHT22;68007;51.312;12.372;2023-07-28T10:35:33;22.10;93.70
3418;DHT22;68007;51.312;12.372;2023-07-28T10:38:27;22.10;92.90
3418;DHT22;68007;51.312;12.372;2023-07-28T10:41:05;22.20;92.60
3418;DHT22;68007;51.312;12.372;2023-07-28T10:43:33;22.30;92.80
3418;DHT22;68007;51.312;12.372;2023-07-28T10:46:01;22.40;92.90
3418;DHT22;68007;51.312;12.372;2023-07-28T10:48:29;22.40;91.90
3418;DHT22;68007;51.312;12.372;2023-07-28T10:50:57;22.40;92.00
3418;DHT22;68007;51.312;12.372;2023-07-28T10:53:25;22.50;92.10
3418;DHT22;68007;51.312;12.372;2023-07-28T10:55:53;22.60;91.80
3418;DHT22;68007;51.312;12.372;2023-07-28T10:58:20;22.70;91.50
3418;DHT22;68007;51.312;12.372;2023-07-28T11:00:50;22.70;91.10
3418;DHT22;68007;51.312;12.372;2023-07-28T11:03:18;22.80;91.30
3418;DHT22;68007;51.312;12.372;2023-07-28T11:05:48;22.80;91.30
3418;DHT22;68007;51.312;12.372;2023-07-28T11:08:16;22.90;91.00
3418;DHT22;68007;51.312;12.372;2023-07-28T11:10:44;23.00;91.20
3418;DHT22;68007;51.312;12.372;2023-07-28T11:13:12;23.10;91.00
3418;DHT22;68007;51.312;12.372;2023-07-28T11:15:40;23.20;90.80
3418;DHT22;68007;51.312;12.372;2023-07-28T11:18:08;23.20;90.50
3418;DHT22;68007;51.312;12.372;2023-07-28T11:20:36;23.20;90.20
3418;DHT22;68007;51.312;12.372;2023-07-28T11:23:05;23.30;90.40
3418;DHT22;68007;51.312;12.372;2023-07-28T11:25:33;23.30;90.60
3418;DHT22;68007;51.312;12.372;2023-07-28T11:28:02;23.30;90.70
3418;DHT22;68007;51.312;12.372;2023-07-28T11:30:32;23.40;90.40
3418;DHT22;68007;51.312;12.372;2023-07-28T11:33:03;23.40;90.60
3418;DHT22;68007;51.312;12.372;2023-07-28T11:35:31;23.50;90.20
3418;DHT22;68007;51.312;12.372;2023-07-28T11:37:59;23.50;90.10
3418;DHT22;68007;51.312;12.372;2023-07-28T11:40:28;23.60;89.90
3418;DHT22;68007;51.312;12.372;2023-07-28T11:42:55;23.60;88.70
3418;DHT22;68007;51.312;12.372;2023-07-28T11:45:23;23.70;87.90
3418;DHT22;68007;51.312;12.372;2023-07-28T11:47:54;23.80;87.90
3418;DHT22;68007;51.312;12.372;2023-07-28T11:50:23;23.90;87.00
3418;DHT22;68007;51.312;12.372;2023-07-28T11:52:50;24.00;86.00
3418;DHT22;68007;51.312;12.372;2023-07-28T11:55:18;24.10;86.10
3418;DHT22;68007;51.312;12.372;2023-07-28T11:57:48;24.10;86.10
3418;DHT22;68007;51.312;12.372;2023-07-28T12:00:16;24.20;85.70
3418;DHT22;68007;51.312;12.372;2023-07-28T12:03:01;24.20;86.10
3418;DHT22;68007;51.312;12.372;2023-07-28T12:05:30;24.20;86.00
3418;DHT22;68007;51.312;12.372;2023-07-28T12:07:57;24.30;85.80
3418;DHT22;68007;51.312;12.372;2023-07-28T12:10:25;24.30;84.70
3418;DHT22;68007;51.312;12.372;2023-07-28T12:12:54;24.40;84.80
3418;DHT22;68007;51.312;12.372;2023-07-28T12:15:23;24.50;85.10
3418;DHT22;68007;51.312;12.372;2023-07-28T12:18:10;24.50;85.50
3418;DHT22;68007;51.312;12.372;2023-07-28T12:20:40;24.60;85.30
3418;DHT22;68007;51.312;12.372;2023-07-28T12:23:13;24.70;86.10
3418;DHT22;68007;51.312;12.372;2023-07-28T12:25:41;24.80;85.50
3418;DHT22;68007;51.312;12.372;2023-07-28T12:28:11;24.80;86.10
3418;DHT22;68007;51.312;12.372;2023-07-28T12:30:39;25.00;83.00
3418;DHT22;68007;51.312;12.372;2023-07-28T12:33:07;24.90;82.50
3418;DHT22;68007;51.312;12.372;2023-07-28T12:35:34;24.90;83.30
3418;DHT22;68007;51.312;12.372;2023-07-28T12:38:03;24.90;83.00
3418;DHT22;68007;51.312;12.372;2023-07-28T12:40:32;24.90;83.10
3418;DHT22;68007;51.312;12.372;2023-07-28T12:43:01;24.90;83.00
3418;DHT22;68007;51.312;12.372;2023-07-28T12:45:30;24.90;83.90
3418;DHT22;68007;51.312;12.372;2023-07-28T12:47:58;24.90;84.10
3418;DHT22;68007;51.312;12.372;2023-07-28T12:50:27;24.90;82.90
3418;DHT22;68007;51.312;12.372;2023-07-28T12:52:54;24.80;83.40
3418;DHT22;68007;51.312;12.372;2023-07-28T12:55:22;24.80;83.30
3418;DHT22;68007;51.312;12.372;2023-07-28T12:57:49;24.80;83.60
3418;DHT22;68007;51.312;12.372;2023-07-28T13:00:17;24.80;83.60
3418;DHT22;68007;51.312;12.372;2023-07-28T13:02:46;24.70;83.90
3418;DHT22;68007;51.312;12.372;2023-07-28T13:05:13;24.70;85.00
3418;DHT22;68007;51.312;12.372;2023-07-28T13:07:43;24.60;85.80
3418;DHT22;68007;51.312;12.372;2023-07-28T13:10:11;24.70;86.60
3418;DHT22;68007;51.312;12.372;2023-07-28T13:12:38;24.80;87.10
3418;DHT22;68007;51.312;12.372;2023-07-28T13:15:07;24.80;86.50
3418;DHT22;68007;51.312;12.372;2023-07-28T13:17:34;25.00;85.70
3418;DHT22;68007;51.312;12.372;2023-07-28T13:20:04;25.00;84.70
3418;DHT22;68007;51.312;12.372;2023-07-28T13:22:32;25.10;84.80
3418;DHT22;68007;51.312;12.372;2023-07-28T13:24:59;25.20;84.70
3418;DHT22;68007;51.312;12.372;2023-07-28T13:27:27;25.20;83.90
3418;DHT22;68007;51.312;12.372;2023-07-28T13:29:54;25.30;84.50
3418;DHT22;68007;51.312;12.372;2023-07-28T13:32:25;25.30;83.20
3418;DHT22;68007;51.312;12.372;2023-07-28T13:34:53;25.30;83.20
3418;DHT22;68007;51.312;12.372;2023-07-28T13:37:22;25.40;83.30
3418;DHT22;68007;51.312;12.372;2023-07-28T13:39:49;25.40;83.20
3418;DHT22;68007;51.312;12.372;2023-07-28T13:42:18;25.40;84.10
3418;DHT22;68007;51.312;12.372;2023-07-28T13:44:45;25.40;83.00
3418;DHT22;68007;51.312;12.372;2023-07-28T13:47:13;25.40;83.30
3418;DHT22;68007;51.312;12.372;2023-07-28T13:49:41;25.50;83.40
3418;DHT22;68007;51.312;12.372;2023-07-28T13:52:08;25.40;80.90
3418;DHT22;68007;51.312;12.372;2023-07-28T13:54:37;25.40;81.80
3418;DHT22;68007;51.312;12.372;2023-07-28T13:57:05;25.40;82.00
3418;DHT22;68007;51.312;12.372;2023-07-28T13:59:33;25.50;82.70
3418;DHT22;68007;51.312;12.372;2023-07-28T14:02:00;25.50;80.40
3418;DHT22;68007;51.312;12.372;2023-07-28T14:04:27;25.50;78.60
3418;DHT22;68007;51.312;12.372;2023-07-28T14:06:55;25.50;77.00
3418;DHT22;68007;51.312;12.372;2023-07-28T14:09:22;25.40;77.80
3418;DHT22;68007;51.312;12.372;2023-07-28T14:11:51;25.40;78.60
3418;DHT22;68007;51.312;12.372;2023-07-28T14:14:19;25.50;76.60
3418;DHT22;68007;51.312;12.372;2023-07-28T14:16:46;25.40;76.80
3418;DHT22;68007;51.312;12.372;2023-07-28T14:19:14;25.40;76.50
3418;DHT22;68007;51.312;12.372;2023-07-28T14:21:41;25.40;75.60
3418;DHT22;68007;51.312;12.372;2023-07-28T14:24:09;25.50;76.20
3418;DHT22;68007;51.312;12.372;2023-07-28T14:26:37;25.40;76.10
3418;DHT22;68007;51.312;12.372;2023-07-28T14:29:06;25.40;75.30
3418;DHT22;68007;51.312;12.372;2023-07-28T14:31:33;25.40;74.70
3418;DHT22;68007;51.312;12.372;2023-07-28T14:34:01;25.40;75.00
3418;DHT22;68007;51.312;12.372;2023-07-28T14:36:28;25.40;75.00
3418;DHT22;68007;51.312;12.372;2023-07-28T14:38:56;25.40;74.30
3418;DHT22;68007;51.312;12.372;2023-07-28T14:41:23;25.50;75.30
3418;DHT22;68007;51.312;12.372;2023-07-28T14:43:51;25.60;75.70
3418;DHT22;68007;51.312;12.372;2023-07-28T14:46:20;25.60;75.00
3418;DHT22;68007;51.312;12.372;2023-07-28T14:48:48;25.70;74.90
3418;DHT22;68007;51.312;12.372;2023-07-28T14:51:16;25.70;75.60
3418;DHT22;68007;51.312;12.372;2023-07-28T14:53:44;25.70;75.30
3418;DHT22;68007;51.312;12.372;2023-07-28T14:56:14;25.80;75.60
3418;DHT22;68007;51.312;12.372;2023-07-28T14:58:42;25.80;75.40
3418;DHT22;68007;51.312;12.372;2023-07-28T15:01:10;25.90;76.00
3418;DHT22;68007;51.312;12.372;2023-07-28T15:03:39;26.00;76.50
3418;DHT22;68007;51.312;12.372;2023-07-28T15:06:07;26.00;76.00
3418;DHT22;68007;51.312;12.372;2023-07-28T15:08:34;26.10;75.20
3418;DHT22;68007;51.312;12.372;2023-07-28T15:11:02;26.00;74.50
3418;DHT22;68007;51.312;12.372;2023-07-28T15:13:30;26.10;75.20
3418;DHT22;68007;51.312;12.372;2023-07-28T15:15:57;26.10;74.60
3418;DHT22;68007;51.312;12.372;2023-07-28T15:18:25;26.10;75.00
3418;DHT22;68007;51.312;12.372;2023-07-28T15:20:54;26.10;75.20
3418;DHT22;68007;51.312;12.372;2023-07-28T15:23:22;26.10;76.10
3418;DHT22;68007;51.312;12.372;2023-07-28T15:25:49;26.20;75.30
3418;DHT22;68007;51.312;12.372;2023-07-28T15:28:19;26.20;74.20
3418;DHT22;68007;51.312;12.372;2023-07-28T15:30:46;26.30;74.70
3418;DHT22;68007;51.312;12.372;2023-07-28T15:33:15;26.30;73.30
3418;DHT22;68007;51.312;12.372;2023-07-28T15:35:44;26.30;73.60
3418;DHT22;68007;51.312;12.372;2023-07-28T15:38:13;26.30;73.40